createdAt,value
2019-02-14T00:02:24.683Z,96952.27
2019-02-14T00:04:57.300Z,96947.53
2019-02-14T00:07:29.921Z,96947.34
2019-02-14T00:10:02.541Z,96946.17
2019-02-14T00:12:35.246Z,96943.56
2019-02-14T00:15:09.068Z,96936.08
2019-02-14T00:17:41.803Z,96932.59
2019-02-14T00:20:14.356Z,96933.48
2019-02-14T00:22:47.088Z,96926.30
2019-02-14T00:25:19.759Z,96927.13
2019-02-14T00:27:52.412Z,96934.92
2019-02-14T00:30:25.008Z,96936.61
2019-02-14T00:32:57.650Z,96933.47
2019-02-14T00:35:30.243Z,96930.41
2019-02-14T00:38:02.914Z,96931.69
2019-02-14T00:40:35.548Z,96936.48
2019-02-14T00:43:08.148Z,96938.67
2019-02-14T00:45:40.998Z,96931.05
2019-02-14T00:48:13.625Z,96938.38
2019-02-14T00:50:46.243Z,96947.70
2019-02-14T00:53:18.879Z,96941.95
2019-02-14T00:55:51.538Z,96947.88
2019-02-14T00:58:24.268Z,96948.25
2019-02-14T01:00:56.843Z,96950.71
2019-02-14T01:03:29.463Z,96949.11
2019-02-14T01:06:02.045Z,96954.53
2019-02-14T01:08:34.623Z,96950.42
2019-02-14T01:11:07.338Z,96955.79
2019-02-14T01:13:39.965Z,96950.95
2019-02-14T01:16:12.565Z,96963.67
2019-02-14T01:18:45.269Z,96956.08
2019-02-14T01:21:17.896Z,96964.90
2019-02-14T01:23:50.507Z,96963.73
2019-02-14T01:26:23.290Z,96962.35
2019-02-14T01:28:56.006Z,96957.48
2019-02-14T01:31:28.598Z,96952.90
2019-02-14T01:34:01.293Z,96955.96
2019-02-14T01:36:33.927Z,96956.48
2019-02-14T01:39:07.475Z,96954.83
2019-02-14T01:41:40.344Z,96945.13
2019-02-14T01:44:13.126Z,96947.88
2019-02-14T01:46:45.799Z,96949.39
2019-02-14T01:49:18.510Z,96941.17
2019-02-14T01:51:52.133Z,96943.55
2019-02-14T01:54:24.907Z,96954.08
2019-02-14T01:56:57.503Z,96951.77
2019-02-14T01:59:30.061Z,96943.20
2019-02-14T02:02:03.091Z,96950.86
2019-02-14T02:04:35.540Z,96934.92
2019-02-14T02:07:08.207Z,96930.81
2019-02-14T02:09:40.881Z,96934.91
2019-02-14T02:12:13.539Z,96936.42
2019-02-14T02:14:46.188Z,96927.75
2019-02-14T02:17:18.765Z,96927.03
2019-02-14T02:19:51.544Z,96927.49
2019-02-14T02:22:24.273Z,96922.30
2019-02-14T02:24:56.939Z,96919.98
2019-02-14T02:27:30.081Z,96921.12
2019-02-14T02:30:02.869Z,96928.54
2019-02-14T02:32:35.420Z,96928.16
2019-02-14T02:35:08.368Z,96928.00
2019-02-14T02:37:40.910Z,96927.48
2019-02-14T02:40:13.715Z,96924.92
2019-02-14T02:42:46.346Z,96929.52
2019-02-14T02:45:19.127Z,96932.09
2019-02-14T02:47:51.727Z,96932.18
2019-02-14T02:50:24.373Z,96933.91
2019-02-14T02:52:57.021Z,96924.89
2019-02-14T02:55:29.628Z,96921.19
2019-02-14T02:58:02.275Z,96918.41
2019-02-14T03:00:34.829Z,96915.47
2019-02-14T03:03:07.511Z,96913.52
2019-02-14T03:05:40.095Z,96916.69
2019-02-14T03:08:12.844Z,96916.17
2019-02-14T03:10:45.405Z,96917.74
2019-02-14T03:13:18.101Z,96914.16
2019-02-14T03:15:50.768Z,96915.27
2019-02-14T03:18:23.514Z,96915.27
2019-02-14T03:20:56.229Z,96920.73
2019-02-14T03:23:28.944Z,96926.00
2019-02-14T03:26:01.664Z,96928.39
2019-02-14T03:28:34.847Z,96923.97
2019-02-14T03:31:07.479Z,96922.78
2019-02-14T03:33:40.133Z,96924.81
2019-02-14T03:36:18.825Z,96923.25
2019-02-14T03:38:47.059Z,96930.52
2019-02-14T03:41:21.958Z,96924.13
2019-02-14T03:43:54.645Z,96931.80
2019-02-14T03:46:27.264Z,96922.26
2019-02-14T03:48:59.971Z,96920.10
2019-02-14T03:51:32.579Z,96920.23
2019-02-14T03:54:05.264Z,96922.18
2019-02-14T03:56:38.002Z,96915.95
2019-02-14T03:59:10.584Z,96915.36
2019-02-14T04:01:43.145Z,96915.72
2019-02-14T04:04:15.861Z,96913.77
2019-02-14T04:06:48.524Z,96918.34
2019-02-14T04:09:21.140Z,96915.19
2019-02-14T04:11:53.944Z,96918.71
2019-02-14T04:14:26.669Z,96916.50
2019-02-14T04:16:59.265Z,96921.20
2019-02-14T04:19:31.859Z,96916.31
2019-02-14T04:22:04.472Z,96915.35
2019-02-14T04:24:37.080Z,96925.84
2019-02-14T04:27:09.817Z,96930.44
2019-02-14T04:29:42.473Z,96925.49
2019-02-14T04:32:15.119Z,96924.97
2019-02-14T04:34:47.726Z,96929.16
2019-02-14T04:37:20.353Z,96932.62
2019-02-14T04:39:52.978Z,96933.51
2019-02-14T04:42:25.532Z,96939.09
2019-02-14T04:44:58.199Z,96932.62
2019-02-14T04:47:30.917Z,96935.47
2019-02-14T04:50:03.556Z,96935.34
2019-02-14T04:52:36.217Z,96934.79
2019-02-14T04:55:09.167Z,96937.58
2019-02-14T04:57:41.956Z,96935.10
2019-02-14T05:00:14.665Z,96930.16
2019-02-14T05:02:47.292Z,96926.84
2019-02-14T05:05:19.930Z,96932.62
2019-02-14T05:07:52.567Z,96927.74
2019-02-14T05:10:25.205Z,96933.36
2019-02-14T05:12:57.810Z,96929.61
2019-02-14T05:15:30.538Z,96928.09
2019-02-14T05:18:03.145Z,96928.86
2019-02-14T05:20:35.710Z,96924.88
2019-02-14T05:23:08.513Z,96927.94
2019-02-14T05:25:41.134Z,96925.97
2019-02-14T05:28:13.844Z,96928.37
2019-02-14T05:30:46.455Z,96931.57
2019-02-14T05:33:19.058Z,96928.95
2019-02-14T05:35:54.759Z,96928.05
2019-02-14T05:38:27.482Z,96935.70
2019-02-14T05:41:00.085Z,96930.52
2019-02-14T05:43:32.958Z,96937.81
2019-02-14T05:46:05.667Z,96933.47
2019-02-14T05:48:39.191Z,96932.11
2019-02-14T05:51:11.926Z,96927.28
2019-02-14T05:53:44.551Z,96924.97
2019-02-14T05:56:17.272Z,96929.06
2019-02-14T05:58:49.967Z,96932.20
2019-02-14T06:01:24.751Z,96925.89
2019-02-14T06:03:57.586Z,96925.91
2019-02-14T06:06:31.120Z,96920.28
2019-02-14T06:09:04.911Z,96926.31
2019-02-14T06:11:37.660Z,96921.57
2019-02-14T06:14:10.455Z,96923.59
2019-02-14T06:16:43.108Z,96933.64
2019-02-14T06:19:15.854Z,96928.00
2019-02-14T06:21:48.489Z,96928.02
2019-02-14T06:24:21.071Z,96931.17
2019-02-14T06:26:53.720Z,96936.14
2019-02-14T06:29:26.327Z,96932.70
2019-02-14T06:31:58.927Z,96941.33
2019-02-14T06:34:31.608Z,96943.37
2019-02-14T06:37:09.444Z,96947.88
2019-02-14T06:39:38.664Z,96949.58
2019-02-14T06:42:11.262Z,96956.03
2019-02-14T06:44:43.945Z,96958.20
2019-02-14T06:47:17.012Z,96966.75
2019-02-14T06:49:49.723Z,96971.19
2019-02-14T06:52:22.576Z,96972.77
2019-02-14T06:54:55.217Z,96976.30
2019-02-14T06:57:27.950Z,96981.57
2019-02-14T07:00:00.576Z,96977.21
2019-02-14T07:02:33.283Z,96979.32
2019-02-14T07:05:06.530Z,96984.20
2019-02-14T07:07:39.364Z,96978.74
2019-02-14T07:10:12.113Z,96985.64
2019-02-14T07:12:44.798Z,96989.67
2019-02-14T07:15:17.477Z,96997.41
2019-02-14T07:17:50.053Z,96998.18
2019-02-14T07:20:22.651Z,96996.98
2019-02-14T07:22:55.431Z,96999.63
2019-02-14T07:25:28.077Z,96998.87
2019-02-14T07:28:00.639Z,97010.22
2019-02-14T07:30:33.337Z,97006.63
2019-02-14T07:33:05.966Z,97006.86
2019-02-14T07:35:38.551Z,97020.34
2019-02-14T07:38:11.275Z,97019.07
2019-02-14T07:40:43.836Z,97019.55
2019-02-14T07:43:16.644Z,97027.05
2019-02-14T07:45:49.346Z,97016.84
2019-02-14T07:48:21.945Z,97016.09
2019-02-14T07:50:54.571Z,97009.70
2019-02-14T07:53:27.234Z,97016.70
2019-02-14T07:55:59.828Z,97014.92
2019-02-14T07:58:32.701Z,97021.17
2019-02-14T08:01:05.339Z,97019.03
2019-02-14T08:03:38.004Z,97004.53
2019-02-14T08:06:10.805Z,97006.44
2019-02-14T08:08:43.526Z,97001.12
2019-02-14T08:11:16.094Z,97001.48
2019-02-14T08:13:48.731Z,97003.81
2019-02-14T08:16:21.382Z,96994.19
2019-02-14T08:18:54.112Z,96998.41
2019-02-14T08:21:26.759Z,96997.48
2019-02-14T08:23:59.360Z,96994.89
2019-02-14T08:26:32.024Z,96991.94
2019-02-14T08:29:04.767Z,96989.23
2019-02-14T08:31:37.580Z,96988.23
2019-02-14T08:34:10.204Z,96985.32
2019-02-14T08:36:42.846Z,96983.20
2019-02-14T08:39:15.595Z,96992.74
2019-02-14T08:41:48.242Z,96986.28
2019-02-14T08:44:20.899Z,96975.13
2019-02-14T08:46:53.569Z,96983.37
2019-02-14T08:49:26.197Z,96978.36
2019-02-14T08:51:58.819Z,96977.05
2019-02-14T08:54:32.775Z,96975.63
2019-02-14T08:57:05.377Z,96965.82
2019-02-14T08:59:38.023Z,96970.33
2019-02-14T09:02:10.695Z,96973.87
2019-02-14T09:04:43.431Z,96965.86
2019-02-14T09:07:15.982Z,96967.41
2019-02-14T09:09:48.752Z,96975.31
2019-02-14T09:12:22.164Z,96967.06
2019-02-14T09:14:55.044Z,96965.63
2019-02-14T09:17:27.611Z,96966.96
2019-02-14T09:20:00.414Z,96967.22
2019-02-14T09:22:33.035Z,96968.87
2019-02-14T09:25:06.118Z,96971.36
2019-02-14T09:27:38.849Z,96978.27
2019-02-14T09:30:11.759Z,96976.81
2019-02-14T09:32:44.489Z,96980.81
2019-02-14T09:35:17.222Z,96975.63
2019-02-14T09:37:49.914Z,96963.02
2019-02-14T09:40:22.653Z,96961.26
2019-02-14T09:42:55.414Z,96973.94
2019-02-14T09:45:28.153Z,96970.06
2019-02-14T09:48:00.904Z,96974.56
2019-02-14T09:50:33.695Z,96970.45
2019-02-14T09:53:06.384Z,96966.82
2019-02-14T09:55:39.427Z,96963.84
2019-02-14T09:58:12.316Z,96970.66
2019-02-14T10:00:45.092Z,96970.46
2019-02-14T10:03:17.711Z,96977.50
2019-02-14T10:05:50.377Z,96973.80
2019-02-14T10:08:23.224Z,96969.97
2019-02-14T10:10:56.178Z,96966.64
2019-02-14T10:13:28.938Z,96970.00
2019-02-14T10:16:01.691Z,96975.64
2019-02-14T10:18:34.439Z,96972.02
2019-02-14T10:21:07.227Z,96963.29
2019-02-14T10:23:39.959Z,96970.48
2019-02-14T10:26:12.747Z,96969.76
